Bei Facebook empfehlenBei Twitter postenGoogle plusPinterest

Das Wetter im Erzgebirge am 09.07.2017

Wetter und Klima am 09.07.2017 Holzhau im Erzgebirge (630m ü.NN)
Letzte gemessene Temperatur und Uhrzeit der Messung23:45:00 Uhr16.40 °C
Temperatur (Maximum / Höchstwert) und Uhrzeit der Messung16:30:00 Uhr29.10 °C
Temperatur (Minimum / Tiefstwert) und Uhrzeit der Messung00:30:0013.10 °C
Errechneter Absolutwert der Temperaturschwankungen zwischen Tmin und Tmax des Tages16.00 K
Errechnete Tagesmitteltemperatur20.55938 °C
Gesamt - Niederschlag des Tages (in flüssiger Form)0.00 Liter / m²
Luftdruck (Maximum / Höchstwert) und Zeitpunkt der Messung00:30:00 Uhr1013.80 hPa
Luftdruck (Minimum / Tiefstwert) und Zeitpunkt der Messung23:15:00 Uhr1009.40 hPa
Errechneter Absolutwert der Luftdruckschwankungen des Tages4.40 hPa
Höchste gemessene Windgeschwindigkeit und Uhrzeit der Messung17:45:00 Uhr660.96 km/h
Errechnete Windhäufigkeit in Relation zu den Messwerten des Tages16.66667 %
Niedrigste Windkühle (Windchill) und Zeitpunkt der Messung00:30:00 Uhr13.10 °C
Taupunkt (Maximum / Höchstwert) und Uhrzeit der Messung13:15:00 Uhr17.30 °C
Taupunkt (Minimum / Tiefstwert) und Uhrzeit der Messung00:00:0010.90 °C
Anzahl der automatisch eingelesenen Messwerte 96

Detaillierte Wetter- und Klima- Messwerte für den 09.07.2017 in Holzhau im Erzgebirge (630m ü.NN)
ZeitTemperaturLuftdruckRel. LuftfeuchteWindWindrichtungWindchillTaupunktNiederschlag l/m²
23:45:0016.40 °C1009.60 hPa85.00 %13.90 °C 
23:30:0016.50 °C1009.50 hPa85.00 %14.00 °C 
23:15:0016.60 °C1009.40 hPa85.00 %14.10 °C 
23:00:0016.80 °C1009.60 hPa83.00 %13.90 °C 
22:45:0017.20 °C1009.70 hPa82.00 %14.10 °C 
22:30:0017.60 °C1010.20 hPa81.00 %14.30 °C 
22:15:0018.00 °C1010.20 hPa80.00 %14.50 °C 
22:00:0018.40 °C1010.40 hPa78.00 %14.50 °C 
21:45:0019.00 °C1010.50 hPa77.00 %14.90 °C 
21:30:0019.60 °C1010.50 hPa75.00 %15.00 °C 
21:15:0020.20 °C1010.60 hPa73.00 %15.20 °C 
21:00:0020.80 °C1010.50 hPa73.00 %15.80 °C 
20:45:0021.30 °C1010.30 hPa72.00 %16.00 °C 
20:30:0021.60 °C1010.30 hPa71.00 %16.10 °C 
20:15:0021.60 °C1010.40 hPa71.00 %16.10 °C 
20:00:0021.70 °C1010.50 hPa70.00 %16.00 °C 
19:45:0021.90 °C1010.60 hPa69.00 %16.00 °C 
19:30:0022.30 °C1010.60 hPa69.00 %16.30 °C 
19:15:0022.90 °C1010.30 hPa66.00 %16.20 °C 
19:00:0023.60 °C1010.30 hPa64.00 %16.40 °C 
18:45:0024.20 °C1010.50 hPa60.00 %15.90 °C 
18:30:0024.80 °C1010.50 hPa58.00 %16.00 °C 
18:15:0025.50 °C1010.70 hPa56.00 %16.10 °C 
18:00:0025.80 °C1010.80 hPa55.00 %16.10 °C 
17:45:0026.40 °C1011.00 hPa54.00 %660.96 km/hSO27.40 °C16.30 °C 
17:30:0026.40 °C1010.90 hPa54.00 %2.52 km/hS26.40 °C16.30 °C 
17:15:0026.40 °C1011.20 hPa53.00 %3.96 km/hSO26.40 °C16.00 °C 
17:00:0027.10 °C1011.20 hPa51.00 %16.10 °C 
16:45:0028.10 °C1011.30 hPa49.00 %16.40 °C 
16:30:0029.10 °C1011.40 hPa48.00 %17.00 °C 
16:15:0029.00 °C1011.30 hPa48.00 %16.90 °C 
16:00:0028.80 °C1011.30 hPa48.00 %16.70 °C 
15:45:0028.60 °C1011.50 hPa47.00 %16.20 °C 
15:30:0028.20 °C1011.70 hPa49.00 %16.50 °C 
15:15:0027.90 °C1012.00 hPa50.00 %20.88 km/hSW30.10 °C16.50 °C 
15:00:0026.90 °C1012.10 hPa53.00 %16.50 °C 
14:45:0026.40 °C1012.20 hPa56.00 %16.90 °C 
14:30:0025.30 °C1012.20 hPa57.00 %16.20 °C 
14:15:0026.10 °C1012.30 hPa54.00 %12.96 km/hWSW26.10 °C16.10 °C 
14:00:0025.80 °C1012.30 hPa56.00 %16.40 °C 
13:45:0026.40 °C1012.40 hPa54.00 %15.48 km/hSW26.40 °C16.30 °C 
13:30:0026.30 °C1012.60 hPa54.00 %5.04 km/hWSW26.30 °C16.30 °C 
13:15:0025.90 °C1012.20 hPa59.00 %17.30 °C 
13:00:0025.20 °C1012.50 hPa57.00 %15.48 km/hSSO25.20 °C16.10 °C 
12:45:0025.10 °C1012.60 hPa58.00 %16.30 °C 
12:30:0025.30 °C1012.70 hPa57.00 %16.20 °C 
12:15:0025.40 °C1012.80 hPa57.00 %16.92 km/hSW25.40 °C16.30 °C 
12:00:0025.30 °C1012.80 hPa57.00 %16.20 °C 
11:45:0025.20 °C1012.60 hPa56.00 %15.80 °C 
11:30:0025.20 °C1012.60 hPa57.00 %15.48 km/hS25.20 °C16.10 °C 
11:15:0024.90 °C1012.80 hPa58.00 %16.10 °C 
11:00:0024.40 °C1012.90 hPa57.00 %15.30 °C 
10:45:0023.70 °C1012.90 hPa59.00 %36.36 km/hSSW25.00 °C15.20 °C 
10:30:0023.10 °C1012.80 hPa61.00 %15.20 °C 
10:15:0022.90 °C1013.00 hPa59.00 %6.48 km/hSSO22.90 °C14.50 °C 
10:00:0023.40 °C1012.90 hPa59.00 %3.96 km/hO23.40 °C14.90 °C 
09:45:0023.50 °C1012.60 hPa60.00 %15.30 °C 
09:30:0023.60 °C1012.50 hPa59.00 %19.44 km/hSO25.20 °C15.10 °C 
09:15:0024.20 °C1012.50 hPa60.00 %42.84 km/hSSW25.50 °C15.90 °C 
09:00:0023.30 °C1012.50 hPa64.00 %16.10 °C 
08:45:0022.30 °C1012.40 hPa66.00 %15.48 km/hWSW22.30 °C15.60 °C 
08:30:0021.80 °C1012.50 hPa67.00 %15.40 °C 
08:15:0021.60 °C1012.50 hPa71.00 %16.10 °C 
08:00:0021.20 °C1012.50 hPa75.00 %16.60 °C 
07:45:0018.60 °C1012.40 hPa82.00 %15.50 °C 
07:30:0017.50 °C1012.40 hPa83.00 %14.60 °C 
07:15:0016.90 °C1012.50 hPa84.00 %14.20 °C 
07:00:0016.40 °C1012.60 hPa86.00 %14.10 °C 
06:45:0015.80 °C1012.60 hPa87.00 %13.60 °C 
06:30:0015.50 °C1012.70 hPa88.00 %13.50 °C 
06:15:0015.20 °C1012.60 hPa89.00 %13.40 °C 
06:00:0014.90 °C1012.60 hPa89.00 %13.10 °C 
05:45:0014.60 °C1012.60 hPa90.00 %13.00 °C 
05:30:0014.30 °C1012.60 hPa90.00 %12.70 °C 
05:15:0014.20 °C1012.70 hPa90.00 %12.60 °C 
05:00:0013.90 °C1012.90 hPa90.00 %12.30 °C 
04:45:0013.90 °C1012.80 hPa89.00 %12.10 °C 
04:30:0013.90 °C1013.00 hPa89.00 %12.10 °C 
04:15:0013.90 °C1013.00 hPa88.00 %11.90 °C 
04:00:0014.10 °C1013.00 hPa88.00 %12.10 °C 
03:45:0014.40 °C1013.00 hPa86.00 %12.10 °C 
03:30:0014.40 °C1012.90 hPa86.00 %12.10 °C 
03:15:0014.20 °C1012.80 hPa87.00 %12.10 °C 
03:00:0014.10 °C1012.90 hPa86.00 %11.80 °C 
02:45:0014.20 °C1013.20 hPa86.00 %11.90 °C 
02:30:0014.20 °C1013.30 hPa86.00 %11.90 °C 
02:15:0014.20 °C1013.20 hPa86.00 %11.90 °C 
02:00:0014.00 °C1013.20 hPa86.00 %11.70 °C 
01:45:0013.80 °C1013.20 hPa87.00 %11.70 °C 
01:30:0013.40 °C1013.30 hPa88.00 %11.50 °C 
01:15:0013.30 °C1013.30 hPa88.00 %11.40 °C 
01:00:0013.30 °C1013.40 hPa88.00 %11.40 °C 
00:45:0013.20 °C1013.50 hPa88.00 %11.30 °C 
00:30:0013.10 °C1013.80 hPa87.00 %11.00 °C 
00:15:0013.10 °C1013.80 hPa87.00 %11.00 °C 
00:00:0013.20 °C1013.70 hPa86.00 %10.90 °C 

Permanenter Link zu dieser Seite: Wetter im Erzgebirge am 09.07.2017
Performance-Info: Die Erstellung der Seite / Statistik(en) / Tabelle(n) erforderte 5 Datenbankserver-Abfrage(n) und dauerte 101 Millisekunden. (Dieser Messwert ist von der Gesamt-Auslastung des Servers abhängig.)
Erzgebirge - Wetter | Erzgebirge - Wetter (Mobilgeräte) | Komplette Klimadatenbank